createdAt,value
2019-04-03T00:01:34.353Z,99444.94
2019-04-03T00:04:16.370Z,99444.61
2019-04-03T00:10:02.402Z,99439.36
2019-04-03T00:12:58.859Z,99434.65
2019-04-03T00:15:29.840Z,99431.42
2019-04-03T00:20:52.982Z,99432.04
2019-04-03T00:23:29.846Z,99430.45
2019-04-03T00:26:02.303Z,99428.80
2019-04-03T00:38:04.599Z,99419.63
2019-04-03T00:41:03.003Z,99421.05
2019-04-03T00:46:44.202Z,99416.28
2019-04-03T00:49:45.143Z,99418.26
2019-04-03T00:54:38.739Z,99420.05
2019-04-03T00:57:15.923Z,99419.13
2019-04-03T01:02:55.087Z,99423.19
2019-04-03T01:08:19.062Z,99425.70
2019-04-03T01:16:17.371Z,99423.22
2019-04-03T01:19:07.474Z,99414.92
2019-04-03T01:30:13.497Z,99409.48
2019-04-03T01:32:50.274Z,99409.75
2019-04-03T01:38:46.325Z,99393.07
2019-04-03T01:41:21.797Z,99389.62
2019-04-03T01:46:50.784Z,99382.27
2019-04-03T01:49:18.745Z,99373.38
2019-04-03T01:52:08.530Z,99370.59
2019-04-03T01:54:43.797Z,99364.53
2019-04-03T01:57:16.084Z,99360.78
2019-04-03T01:59:48.622Z,99361.78
2019-04-03T02:02:27.052Z,99360.74
2019-04-03T02:05:17.214Z,99358.59
2019-04-03T02:07:49.159Z,99355.52
2019-04-03T02:10:33.469Z,99353.27
2019-04-03T02:16:31.941Z,99359.75
2019-04-03T02:22:43.407Z,99362.85
2019-04-03T02:24:48.261Z,99364.52
2019-04-03T02:30:05.662Z,99359.36
2019-04-03T02:55:43.128Z,99335.16
2019-04-03T03:01:05.669Z,99328.45
2019-04-03T03:03:30.631Z,99328.82
2019-04-03T03:06:00.667Z,99338.37
2019-04-03T03:08:28.021Z,99338.09
2019-04-03T03:10:56.442Z,99342.50
2019-04-03T03:13:33.691Z,99341.21
2019-04-03T03:16:00.688Z,99345.75
2019-04-03T03:18:28.724Z,99347.80
2019-04-03T03:23:57.899Z,99341.93
2019-04-03T03:26:26.465Z,99342.17
2019-04-03T03:28:54.310Z,99348.78
2019-04-03T03:31:44.554Z,99342.66
2019-04-03T03:33:52.995Z,99345.00
2019-04-03T03:36:24.817Z,99347.05
2019-04-03T03:38:51.313Z,99343.28
2019-04-03T03:41:29.767Z,99342.55
2019-04-03T03:43:57.597Z,99336.61
2019-04-03T03:46:27.839Z,99337.80
2019-04-03T03:48:55.883Z,99330.14
2019-04-03T03:51:30.170Z,99328.73
2019-04-03T03:53:58.770Z,99329.95
2019-04-03T03:56:31.238Z,99328.17
2019-04-03T03:58:57.230Z,99328.52
2019-04-03T04:01:25.427Z,99331.98
2019-04-03T04:03:57.913Z,99338.59
2019-04-03T04:06:35.897Z,99337.16
2019-04-03T04:09:04.960Z,99334.84
2019-04-03T04:11:38.363Z,99329.06
2019-04-03T04:14:23.912Z,99328.66
2019-04-03T04:16:59.067Z,99329.99
2019-04-03T04:19:32.535Z,99330.83
2019-04-03T04:22:16.754Z,99329.05
2019-04-03T04:24:33.088Z,99321.13
2019-04-03T04:27:03.206Z,99319.76
2019-04-03T04:29:37.261Z,99314.63
2019-04-03T04:32:05.885Z,99313.44
2019-04-03T04:34:35.255Z,99309.41
2019-04-03T04:37:06.041Z,99304.18
2019-04-03T04:39:34.049Z,99298.02
2019-04-03T04:42:04.673Z,99301.62
2019-04-03T04:44:33.541Z,99299.95
2019-04-03T04:47:10.036Z,99295.58
2019-04-03T04:49:41.216Z,99299.63
2019-04-03T04:52:09.219Z,99294.46
2019-04-03T04:54:43.168Z,99295.53
2019-04-03T04:57:33.826Z,99290.27
2019-04-03T04:59:58.768Z,99287.05
2019-04-03T05:02:33.590Z,99283.70
2019-04-03T05:05:09.258Z,99287.00
2019-04-03T05:07:47.979Z,99283.85
2019-04-03T05:10:23.333Z,99287.64
2019-04-03T05:15:57.421Z,99290.41
2019-04-03T05:18:38.721Z,99285.17
2019-04-03T05:28:01.147Z,99273.69
2019-04-03T05:29:58.585Z,99270.08
2019-04-03T05:35:24.898Z,99281.30
2019-04-03T05:40:54.717Z,99267.28
2019-04-03T05:43:35.772Z,99264.40
2019-04-03T05:46:07.854Z,99270.25
2019-04-03T05:48:38.420Z,99274.27
2019-04-03T05:51:14.160Z,99266.58
2019-04-03T05:59:24.322Z,99270.80
2019-04-03T06:02:22.975Z,99276.45
2019-04-03T06:14:52.106Z,99282.00
2019-04-03T06:23:29.736Z,99279.20
2019-04-03T06:26:12.257Z,99279.13
2019-04-03T06:31:29.869Z,99272.71
2019-04-03T06:37:03.010Z,99265.08
2019-04-03T08:23:46.705Z,99329.08
2019-04-03T08:33:26.558Z,99332.17
2019-04-03T08:36:26.463Z,99327.08
2019-04-03T08:58:09.046Z,99339.93
2019-04-03T10:16:06.149Z,99373.23
2019-04-03T14:10:38.678Z,99137.45
2019-04-03T15:13:03.969Z,99175.02
2019-04-03T15:47:49.983Z,99163.98
2019-04-03T15:53:48.015Z,99162.31
2019-04-03T15:56:29.035Z,99167.28
2019-04-03T15:59:20.883Z,99157.54
2019-04-03T16:18:10.569Z,99170.47
2019-04-03T16:23:59.971Z,99170.95
2019-04-03T16:27:17.352Z,99174.58
2019-04-03T16:30:25.347Z,99189.09
2019-04-03T16:36:17.694Z,99150.28
2019-04-03T16:39:21.643Z,99157.93
2019-04-03T16:42:17.104Z,99158.73
2019-04-03T16:44:42.929Z,99162.03
2019-04-03T16:47:27.680Z,99168.33
2019-04-03T16:50:00.356Z,99175.33
2019-04-03T16:53:09.154Z,99179.69
2019-04-03T16:56:11.817Z,99184.47
2019-04-03T16:59:07.296Z,99170.03
2019-04-03T17:01:45.609Z,99188.25
2019-04-03T17:04:37.670Z,99199.50
2019-04-03T17:07:13.161Z,99203.48
2019-04-03T17:09:53.956Z,99207.11
2019-04-03T17:15:14.302Z,99213.06
2019-04-03T17:17:49.020Z,99207.75
2019-04-03T17:20:22.602Z,99197.64
2019-04-03T17:22:55.283Z,99183.80
2019-04-03T17:25:26.964Z,99165.32
2019-04-03T17:27:59.785Z,99159.70
2019-04-03T17:30:41.459Z,99183.31
2019-04-03T17:33:47.466Z,99177.73
2019-04-03T17:42:25.808Z,99217.95
2019-04-03T17:45:25.512Z,99211.72
2019-04-03T17:50:57.551Z,99171.48
2019-04-03T17:57:09.059Z,99190.39
2019-04-03T18:00:42.513Z,99173.34
2019-04-03T18:04:09.405Z,99214.69
2019-04-03T18:07:00.929Z,99247.88
2019-04-03T18:12:45.682Z,99201.69
2019-04-03T18:15:37.116Z,99198.11
2019-04-03T18:18:35.465Z,99216.03
2019-04-03T18:23:58.557Z,99234.02
2019-04-03T18:26:30.454Z,99221.09
2019-04-03T18:38:42.355Z,99193.78
2019-04-03T18:41:18.411Z,99213.27
2019-04-03T18:44:41.176Z,99220.54
2019-04-03T18:53:40.665Z,99216.45
2019-04-03T18:56:16.957Z,99191.47
2019-04-03T19:02:14.870Z,99208.00
2019-04-03T19:50:40.306Z,99195.55
2019-04-03T19:56:47.134Z,99231.67
2019-04-03T20:19:22.505Z,99226.41
2019-04-03T20:39:59.924Z,99202.62
2019-04-03T20:55:27.394Z,99184.50
2019-04-03T20:58:30.714Z,99188.30
2019-04-03T21:01:14.102Z,99188.16
2019-04-03T21:11:06.679Z,99187.53
2019-04-03T21:23:52.511Z,99231.82
2019-04-03T21:24:35.916Z,99225.88
2019-04-03T21:26:32.174Z,99210.63
2019-04-03T21:29:33.401Z,99203.56
2019-04-03T21:54:36.919Z,99194.38
2019-04-03T21:57:32.868Z,99200.58
2019-04-03T22:19:35.828Z,99191.56
2019-04-03T22:22:06.998Z,99192.30
2019-04-03T22:24:44.319Z,99188.43
2019-04-03T22:27:16.077Z,99177.45
2019-04-03T22:29:45.154Z,99186.27
2019-04-03T22:32:29.766Z,99186.37
2019-04-03T22:35:01.022Z,99189.95
2019-04-03T22:40:19.544Z,99183.64
2019-04-03T22:43:09.839Z,99176.70
2019-04-03T22:45:45.528Z,99171.42
2019-04-03T22:48:14.584Z,99178.97
2019-04-03T22:50:45.831Z,99181.86
2019-04-03T22:53:18.231Z,99187.52
2019-04-03T22:56:00.643Z,99188.00
2019-04-03T22:58:31.985Z,99181.52
2019-04-03T23:01:10.421Z,99174.41
2019-04-03T23:03:50.062Z,99175.91
2019-04-03T23:09:20.002Z,99176.23
2019-04-03T23:11:58.305Z,99177.83
2019-04-03T23:14:38.223Z,99178.98
2019-04-03T23:17:04.745Z,99157.61
2019-04-03T23:19:33.208Z,99146.62
2019-04-03T23:24:52.017Z,99141.63
2019-04-03T23:27:21.143Z,99137.75
2019-04-03T23:29:51.558Z,99144.94
2019-04-03T23:32:46.498Z,99136.09
2019-04-03T23:35:37.020Z,99119.55
2019-04-03T23:38:08.678Z,99118.78
2019-04-03T23:40:41.924Z,99114.09
2019-04-03T23:43:10.497Z,99093.28
2019-04-03T23:45:39.334Z,99089.57
2019-04-03T23:48:08.051Z,99085.62
2019-04-03T23:53:23.044Z,99073.11
2019-04-03T23:55:57.958Z,99079.25
2019-04-03T23:58:26.855Z,99071.42
